Time;durP1;ratioP1;P1;durP2;ratioP2;P2;SDS_P1;SDS_P2;PMS_P1;PMS_P2;Temp;Humidity;BMP_temperature;BMP_pressure;BME280_temperature;BME280_humidity;BME280_pressure;Samples;Min_cycle;Max_cycle;Signal;HPM_P1;HPM_P2
2021/09/01 00:01:05;;;;;;;4.95;3.40;;;;;;;;;;4970043;28;20023;-65
2021/09/01 00:03:31;;;;;;;3.90;3.20;;;;;;;;;;4966703;28;20515;-70
2021/09/01 00:05:57;;;;;;;4.38;3.20;;;;;;;;;;4972810;28;20035;-70
2021/09/01 00:08:25;;;;;;;4.40;3.30;;;;;;;;;;4973813;28;20062;-68
2021/09/01 00:10:51;;;;;;;5.68;3.50;;;;;;;;;;4973897;28;20027;-64
2021/09/01 00:13:19;;;;;;;4.65;3.20;;;;;;;;;;4972183;28;20027;-65
2021/09/01 00:15:45;;;;;;;5.22;3.30;;;;;;;;;;4972049;28;20046;-64
2021/09/01 00:18:11;;;;;;;4.43;3.25;;;;;;;;;;4973392;28;20110;-64
2021/09/01 00:20:38;;;;;;;6.90;3.30;;;;;;;;;;4973266;28;20037;-68
2021/09/01 00:23:04;;;;;;;6.95;3.40;;;;;;;;;;4964917;28;20493;-69
2021/09/01 00:25:30;;;;;;;5.72;3.40;;;;;;;;;;4969463;28;20037;-67
2021/09/01 00:27:56;;;;;;;5.38;3.40;;;;;;;;;;4973432;28;20019;-64
2021/09/01 00:30:22;;;;;;;8.20;3.30;;;;;;;;;;4971926;28;20106;-68
2021/09/01 00:32:48;;;;;;;5.43;3.40;;;;;;;;;;4969773;28;20473;-68
2021/09/01 00:35:14;;;;;;;4.32;3.15;;;;;;;;;;4965708;28;20549;-65
2021/09/01 00:37:40;;;;;;;6.25;3.40;;;;;;;;;;4944859;28;20460;-69
2021/09/01 00:40:06;;;;;;;4.35;2.90;;;;;;;;;;4973426;28;20069;-69
2021/09/01 00:42:34;;;;;;;7.15;3.40;;;;;;;;;;4969844;28;20541;-64
2021/09/01 00:45:01;;;;;;;6.50;3.30;;;;;;;;;;4972485;28;20027;-63
2021/09/01 00:47:27;;;;;;;4.93;3.00;;;;;;;;;;4973458;28;20023;-66
2021/09/01 00:49:53;;;;;;;4.38;3.38;;;;;;;;;;4973367;28;20073;-65
2021/09/01 00:52:19;;;;;;;7.55;3.28;;;;;;;;;;4971805;28;20082;-70
2021/09/01 00:54:46;;;;;;;3.65;3.10;;;;;;;;;;4971973;28;20073;-69
2021/09/01 00:57:12;;;;;;;4.78;2.92;;;;;;;;;;4971443;28;20177;-64
2021/09/01 00:59:39;;;;;;;3.30;3.00;;;;;;;;;;4972798;28;20073;-69
2021/09/01 01:02:05;;;;;;;4.70;3.35;;;;;;;;;;4972765;28;20041;-66
2021/09/01 01:04:32;;;;;;;7.25;3.20;;;;;;;;;;4966929;28;20037;-69
2021/09/01 01:07:05;;;;;;;4.68;3.08;;;;;;;;;;4972436;28;20066;-68
2021/09/01 01:09:35;;;;;;;4.20;3.05;;;;;;;;;;4960400;28;20027;-64
2021/09/01 01:12:04;;;;;;;3.65;2.70;;;;;;;;;;4971120;28;20019;-63
2021/09/01 01:14:32;;;;;;;4.03;3.13;;;;;;;;;;4970334;28;20109;-70
2021/09/01 01:16:58;;;;;;;4.60;2.90;;;;;;;;;;4960182;28;20038;-69
2021/09/01 01:19:24;;;;;;;8.30;3.25;;;;;;;;;;4969370;28;20091;-68
2021/09/01 01:21:51;;;;;;;4.50;3.20;;;;;;;;;;4964542;28;20034;-70
2021/09/01 01:24:17;;;;;;;4.70;2.90;;;;;;;;;;4971389;28;20110;-68
2021/09/01 01:26:43;;;;;;;5.00;2.95;;;;;;;;;;4971771;28;20106;-63
2021/09/01 01:29:10;;;;;;;3.95;3.10;;;;;;;;;;4967451;28;20437;-63
2021/09/01 01:31:37;;;;;;;5.10;3.20;;;;;;;;;;4969772;28;20042;-71
2021/09/01 01:34:03;;;;;;;3.47;3.08;;;;;;;;;;4972855;28;20023;-67
2021/09/01 01:36:30;;;;;;;4.28;3.00;;;;;;;;;;4973401;28;20026;-68
2021/09/01 01:38:56;;;;;;;3.50;3.10;;;;;;;;;;4960359;28;20032;-64
2021/09/01 01:41:22;;;;;;;3.65;3.13;;;;;;;;;;4973099;28;20035;-69
2021/09/01 01:43:48;;;;;;;4.25;3.40;;;;;;;;;;4969346;28;20090;-69
2021/09/01 01:46:15;;;;;;;3.28;2.90;;;;;;;;;;4971467;28;20033;-65
2021/09/01 01:48:41;;;;;;;4.63;3.08;;;;;;;;;;4971585;28;20034;-64
2021/09/01 01:51:07;;;;;;;5.53;3.05;;;;;;;;;;4983085;28;20106;-66
2021/09/01 01:53:33;;;;;;;4.80;3.40;;;;;;;;;;4972959;28;20051;-66
2021/09/01 01:56:00;;;;;;;4.22;3.45;;;;;;;;;;4973031;28;20023;-69
2021/09/01 01:58:27;;;;;;;3.83;3.38;;;;;;;;;;4959785;28;20037;-69
2021/09/01 02:00:53;;;;;;;3.83;3.28;;;;;;;;;;4965684;28;20114;-64
2021/09/01 02:03:20;;;;;;;4.03;3.10;;;;;;;;;;4970277;28;20034;-69
2021/09/01 02:05:46;;;;;;;7.15;3.20;;;;;;;;;;4972504;28;20037;-64
2021/09/01 02:08:12;;;;;;;10.35;3.50;;;;;;;;;;4976231;28;20022;-70
2021/09/01 02:10:38;;;;;;;5.43;3.60;;;;;;;;;;4974633;28;20567;-64
2021/09/01 02:13:06;;;;;;;3.95;3.40;;;;;;;;;;4972105;28;20030;-67
2021/09/01 02:15:32;;;;;;;4.00;3.15;;;;;;;;;;4975360;28;20052;-67
2021/09/01 02:17:58;;;;;;;4.20;3.47;;;;;;;;;;4975939;28;20027;-65
2021/09/01 02:20:24;;;;;;;3.80;3.38;;;;;;;;;;4974058;28;20094;-64
2021/09/01 02:22:50;;;;;;;4.13;3.20;;;;;;;;;;4971810;28;20076;-68
2021/09/01 02:25:17;;;;;;;5.75;3.70;;;;;;;;;;4969901;28;20033;-68
2021/09/01 02:27:43;;;;;;;5.93;3.88;;;;;;;;;;4975626;28;20018;-65
2021/09/01 02:30:10;;;;;;;4.50;3.45;;;;;;;;;;4975768;28;20042;-65
2021/09/01 02:32:36;;;;;;;7.68;3.55;;;;;;;;;;4970096;28;20477;-69
2021/09/01 02:35:03;;;;;;;4.13;3.33;;;;;;;;;;4975795;28;20033;-67
2021/09/01 02:37:30;;;;;;;5.43;3.67;;;;;;;;;;4963433;28;20028;-69
2021/09/01 02:39:59;;;;;;;4.68;3.78;;;;;;;;;;4975464;28;20038;-69
2021/09/01 02:42:26;;;;;;;6.00;3.65;;;;;;;;;;4972661;28;20053;-64
2021/09/01 02:44:52;;;;;;;4.35;3.50;;;;;;;;;;4962926;28;20067;-68
2021/09/01 02:47:18;;;;;;;6.88;3.60;;;;;;;;;;4975899;28;20030;-66
2021/09/01 02:49:44;;;;;;;5.03;3.53;;;;;;;;;;4975251;28;20031;-64
2021/09/01 02:52:10;;;;;;;7.75;3.90;;;;;;;;;;4973477;28;20034;-67
2021/09/01 02:54:36;;;;;;;5.03;3.50;;;;;;;;;;4973921;28;20019;-70
2021/09/01 02:57:03;;;;;;;7.63;4.43;;;;;;;;;;4974964;28;20035;-65
2021/09/01 02:59:29;;;;;;;6.80;3.90;;;;;;;;;;4975058;28;20065;-64
2021/09/01 03:01:55;;;;;;;5.15;4.00;;;;;;;;;;4971938;28;20027;-64
2021/09/01 03:04:21;;;;;;;5.95;3.83;;;;;;;;;;4971441;28;20039;-66
2021/09/01 03:06:47;;;;;;;5.20;3.75;;;;;;;;;;4971687;28;20026;-62
2021/09/01 03:09:13;;;;;;;5.22;3.78;;;;;;;;;;4975248;28;20031;-67
2021/09/01 03:11:39;;;;;;;4.35;3.67;;;;;;;;;;4974936;28;20019;-70
2021/09/01 03:14:05;;;;;;;7.80;3.53;;;;;;;;;;4972014;28;20182;-70
2021/09/01 03:16:31;;;;;;;6.55;3.67;;;;;;;;;;4963413;28;20030;-69
2021/09/01 03:19:00;;;;;;;5.88;3.92;;;;;;;;;;4974181;28;20030;-63
2021/09/01 03:21:26;;;;;;;6.80;3.70;;;;;;;;;;4974546;28;20038;-69
2021/09/01 03:23:52;;;;;;;6.82;3.60;;;;;;;;;;4974220;28;20053;-65
2021/09/01 03:26:19;;;;;;;6.60;3.92;;;;;;;;;;4974083;28;20377;-64
2021/09/01 03:28:45;;;;;;;7.22;4.22;;;;;;;;;;4973523;28;20030;-65
2021/09/01 03:31:11;;;;;;;5.57;4.10;;;;;;;;;;4973505;28;20082;-70
2021/09/01 03:33:37;;;;;;;6.57;3.92;;;;;;;;;;4972339;28;20081;-69
2021/09/01 03:36:03;;;;;;;6.40;3.90;;;;;;;;;;4965956;28;20035;-64
2021/09/01 03:38:29;;;;;;;5.82;3.92;;;;;;;;;;4964381;28;20109;-69
2021/09/01 03:40:55;;;;;;;6.50;4.07;;;;;;;;;;4977271;28;20488;-65
2021/09/01 03:43:22;;;;;;;5.80;4.63;;;;;;;;;;4971540;28;20027;-66
2021/09/01 03:45:54;;;;;;;6.50;4.00;;;;;;;;;;4973331;28;20114;-63
2021/09/01 03:48:20;;;;;;;6.90;4.70;;;;;;;;;;4974836;28;20027;-69
2021/09/01 03:50:46;;;;;;;6.38;3.95;;;;;;;;;;4973078;28;20035;-64
2021/09/01 03:53:13;;;;;;;7.80;4.18;;;;;;;;;;4968706;28;20031;-69
2021/09/01 03:55:41;;;;;;;6.13;4.30;;;;;;;;;;4973315;28;20062;-68
2021/09/01 03:58:07;;;;;;;6.47;4.13;;;;;;;;;;4972178;28;20151;-65
2021/09/01 04:00:33;;;;;;;5.05;4.20;;;;;;;;;;4971834;28;20043;-67
2021/09/01 04:02:59;;;;;;;5.85;4.20;;;;;;;;;;4967443;28;20039;-68
2021/09/01 04:05:26;;;;;;;5.45;4.05;;;;;;;;;;4966404;28;20130;-64
2021/09/01 04:07:52;;;;;;;6.20;4.50;;;;;;;;;;4969185;28;20031;-63
2021/09/01 04:10:18;;;;;;;10.88;4.20;;;;;;;;;;4973810;28;20101;-62
2021/09/01 04:12:44;;;;;;;6.05;3.95;;;;;;;;;;4968936;28;20034;-68
2021/09/01 04:15:10;;;;;;;7.70;4.93;;;;;;;;;;4972713;28;20030;-67
2021/09/01 04:17:36;;;;;;;11.13;4.50;;;;;;;;;;4966079;28;20058;-64
2021/09/01 04:20:02;;;;;;;7.85;4.50;;;;;;;;;;4973858;28;20034;-64
2021/09/01 04:22:28;;;;;;;6.32;4.10;;;;;;;;;;4971478;28;20480;-72
2021/09/01 04:24:54;;;;;;;9.57;4.70;;;;;;;;;;4965040;28;20046;-68
2021/09/01 04:27:20;;;;;;;7.05;4.22;;;;;;;;;;4971514;28;20027;-69
2021/09/01 04:29:46;;;;;;;5.63;4.00;;;;;;;;;;4964385;28;20035;-67
2021/09/01 04:32:12;;;;;;;5.63;3.97;;;;;;;;;;4971938;28;20181;-65
2021/09/01 04:34:40;;;;;;;7.93;4.57;;;;;;;;;;4977071;28;20090;-70
2021/09/01 04:37:08;;;;;;;9.52;4.47;;;;;;;;;;4964194;28;20027;-62
2021/09/01 04:39:34;;;;;;;7.72;4.25;;;;;;;;;;4971213;28;20163;-63
2021/09/01 04:42:00;;;;;;;4.50;4.00;;;;;;;;;;4973572;28;20130;-68
2021/09/01 04:44:26;;;;;;;10.45;4.80;;;;;;;;;;4961400;28;20027;-66
2021/09/01 04:46:52;;;;;;;8.27;4.10;;;;;;;;;;4971838;28;20023;-70
2021/09/01 04:49:18;;;;;;;8.60;4.47;;;;;;;;;;4970326;28;20047;-68
2021/09/01 04:51:45;;;;;;;8.80;4.55;;;;;;;;;;4989087;28;20046;-74
2021/09/01 04:54:11;;;;;;;7.47;4.63;;;;;;;;;;4975680;28;20042;-72
2021/09/01 04:56:37;;;;;;;7.28;4.22;;;;;;;;;;4974687;28;20026;-67
2021/09/01 04:59:03;;;;;;;6.93;4.57;;;;;;;;;;4970031;28;20039;-70
2021/09/01 05:01:29;;;;;;;7.72;4.10;;;;;;;;;;4970363;28;20023;-65
2021/09/01 05:03:55;;;;;;;6.10;4.18;;;;;;;;;;4951463;28;20393;-65
2021/09/01 05:06:21;;;;;;;8.35;4.20;;;;;;;;;;4971786;28;20437;-73
2021/09/01 05:08:47;;;;;;;5.75;4.22;;;;;;;;;;4971175;28;20030;-66
2021/09/01 05:11:13;;;;;;;6.93;4.50;;;;;;;;;;4967159;28;20099;-66
2021/09/01 05:13:40;;;;;;;7.15;4.20;;;;;;;;;;4963810;28;20031;-66
2021/09/01 05:16:06;;;;;;;5.60;4.05;;;;;;;;;;4960178;28;20094;-68
2021/09/01 05:18:32;;;;;;;8.23;4.38;;;;;;;;;;4965541;28;20381;-63
2021/09/01 05:20:59;;;;;;;7.70;4.63;;;;;;;;;;4968863;28;20042;-72
2021/09/01 05:23:35;;;;;;;6.80;4.28;;;;;;;;;;4970303;28;20056;-64
2021/09/01 05:26:07;;;;;;;5.90;4.07;;;;;;;;;;4971810;28;20034;-69
2021/09/01 05:28:35;;;;;;;5.28;4.20;;;;;;;;;;4971136;28;20167;-71
2021/09/01 05:31:03;;;;;;;6.82;4.63;;;;;;;;;;4958386;28;20022;-69
2021/09/01 05:33:32;;;;;;;5.80;4.57;;;;;;;;;;4970933;28;20031;-71
2021/09/01 05:35:58;;;;;;;7.65;4.43;;;;;;;;;;4971651;28;20118;-64
2021/09/01 05:38:25;;;;;;;7.22;4.15;;;;;;;;;;4973087;28;20027;-74
2021/09/01 05:40:52;;;;;;;5.47;4.00;;;;;;;;;;4974298;28;20129;-63
2021/09/01 05:43:19;;;;;;;6.05;4.22;;;;;;;;;;4976969;28;20093;-68
2021/09/01 05:45:45;;;;;;;6.13;4.18;;;;;;;;;;4990552;28;20033;-71
2021/09/01 05:48:12;;;;;;;6.68;4.55;;;;;;;;;;4978076;28;20027;-74
2021/09/01 05:50:39;;;;;;;5.13;4.18;;;;;;;;;;4976348;28;20384;-68
2021/09/01 05:53:05;;;;;;;7.65;4.45;;;;;;;;;;4975988;28;20067;-71
2021/09/01 05:55:36;;;;;;;7.03;4.10;;;;;;;;;;4975035;28;20035;-74
2021/09/01 05:58:03;;;;;;;7.50;4.40;;;;;;;;;;4976477;28;20023;-70
2021/09/01 06:00:33;;;;;;;5.50;4.40;;;;;;;;;;4971679;28;20543;-72
2021/09/01 06:03:17;;;;;;;7.40;4.20;;;;;;;;;;4972151;28;20082;-70
2021/09/01 06:05:44;;;;;;;6.90;4.28;;;;;;;;;;4973654;28;20034;-70
2021/09/01 06:08:11;;;;;;;5.10;4.07;;;;;;;;;;4975062;28;20027;-68
2021/09/01 06:10:37;;;;;;;10.85;4.47;;;;;;;;;;4976548;28;20031;-68
2021/09/01 06:13:10;;;;;;;7.95;4.10;;;;;;;;;;4974470;28;20057;-69
2021/09/01 06:15:38;;;;;;;6.00;4.15;;;;;;;;;;4977363;28;20106;-75
2021/09/01 06:18:04;;;;;;;6.38;4.22;;;;;;;;;;4974220;28;20372;-74
2021/09/01 06:20:31;;;;;;;8.38;4.85;;;;;;;;;;4982077;28;20480;-64
2021/09/01 06:22:57;;;;;;;6.50;4.30;;;;;;;;;;4980973;28;20089;-76
2021/09/01 06:25:23;;;;;;;5.50;4.32;;;;;;;;;;4982345;28;20151;-63
2021/09/01 06:27:49;;;;;;;8.38;4.43;;;;;;;;;;4980907;28;20042;-71
2021/09/01 06:30:15;;;;;;;6.93;4.25;;;;;;;;;;4977321;28;20066;-74
2021/09/01 06:32:41;;;;;;;8.65;4.78;;;;;;;;;;4974398;28;20046;-66
2021/09/01 06:35:08;;;;;;;7.05;5.20;;;;;;;;;;4975351;28;20043;-71
2021/09/01 06:37:35;;;;;;;8.52;4.65;;;;;;;;;;4975159;28;20422;-69
2021/09/01 06:40:01;;;;;;;7.82;6.30;;;;;;;;;;4975336;28;20042;-69
2021/09/01 06:42:27;;;;;;;6.68;5.25;;;;;;;;;;4975433;28;20033;-73
2021/09/01 06:44:53;;;;;;;6.97;5.13;;;;;;;;;;4982459;28;20069;-77
2021/09/01 06:47:19;;;;;;;5.90;4.80;;;;;;;;;;4990604;28;20026;-78
2021/09/01 06:49:45;;;;;;;5.78;4.15;;;;;;;;;;4980702;28;20058;-77
2021/09/01 06:52:20;;;;;;;7.40;4.40;;;;;;;;;;4983091;28;20015;-73
2021/09/01 06:54:46;;;;;;;5.68;4.38;;;;;;;;;;4964544;28;20030;-73
2021/09/01 06:57:12;;;;;;;6.35;4.25;;;;;;;;;;4974584;28;20532;-70
2021/09/01 06:59:38;;;;;;;8.85;4.20;;;;;;;;;;4974509;28;20098;-71
2021/09/01 07:02:04;;;;;;;5.68;4.32;;;;;;;;;;4959268;28;20105;-72
2021/09/01 07:04:31;;;;;;;8.70;4.80;;;;;;;;;;4975143;28;20046;-81
2021/09/01 07:06:57;;;;;;;7.20;4.63;;;;;;;;;;4990737;28;20023;-78
2021/09/01 07:09:40;;;;;;;6.20;4.07;;;;;;;;;;4981483;28;20062;-73
2021/09/01 07:12:08;;;;;;;6.85;4.47;;;;;;;;;;4995217;28;20031;-70
2021/09/01 07:14:35;;;;;;;10.02;4.70;;;;;;;;;;4981018;28;20473;-86
2021/09/01 07:17:05;;;;;;;7.18;4.15;;;;;;;;;;4957338;28;20027;-78
2021/09/01 07:20:01;;;;;;;6.72;4.50;;;;;;;;;;4994084;28;20041;-70
2021/09/01 07:22:27;;;;;;;9.43;4.57;;;;;;;;;;4986140;28;20045;-76
2021/09/01 07:24:53;;;;;;;6.72;4.78;;;;;;;;;;4982199;28;20030;-76
2021/09/01 07:27:19;;;;;;;8.15;5.22;;;;;;;;;;4975809;28;20078;-86
2021/09/01 07:29:46;;;;;;;11.85;4.78;;;;;;;;;;4958292;28;20038;-77
2021/09/01 07:32:12;;;;;;;7.10;4.75;;;;;;;;;;4980477;28;20118;-73
2021/09/01 07:34:39;;;;;;;5.53;4.55;;;;;;;;;;4974366;28;20022;-74
2021/09/01 07:37:07;;;;;;;14.75;5.03;;;;;;;;;;4974152;28;20074;-74
2021/09/01 07:39:33;;;;;;;5.40;4.43;;;;;;;;;;4958077;28;20084;-73
2021/09/01 07:41:59;;;;;;;7.10;4.43;;;;;;;;;;4976169;28;20029;-74
2021/09/01 07:44:28;;;;;;;6.40;4.38;;;;;;;;;;4962881;28;20034;-73
2021/09/01 07:46:57;;;;;;;8.85;5.00;;;;;;;;;;4956292;28;20069;-85
2021/09/01 07:49:23;;;;;;;6.35;4.72;;;;;;;;;;4969231;28;20042;-75
2021/09/01 07:51:49;;;;;;;7.90;4.85;;;;;;;;;;4969804;28;20027;-81
2021/09/01 07:54:21;;;;;;;8.27;4.72;;;;;;;;;;4972680;28;20051;-73
2021/09/01 07:56:47;;;;;;;7.35;5.20;;;;;;;;;;4966786;28;20030;-72
2021/09/01 07:59:13;;;;;;;8.20;4.50;;;;;;;;;;4971569;28;20034;-86
2021/09/01 08:01:39;;;;;;;7.72;5.03;;;;;;;;;;4970977;28;20054;-75
2021/09/01 08:04:06;;;;;;;9.85;5.05;;;;;;;;;;4967620;28;20038;-75
2021/09/01 08:06:32;;;;;;;35.67;9.45;;;;;;;;;;4969631;28;20449;-76
2021/09/01 08:08:58;;;;;;;16.80;6.43;;;;;;;;;;4962014;28;20426;-73
2021/09/01 08:11:24;;;;;;;8.25;5.32;;;;;;;;;;4961950;28;20054;-74
2021/09/01 08:13:50;;;;;;;18.30;7.43;;;;;;;;;;4970922;28;20019;-72
2021/09/01 08:16:17;;;;;;;18.40;7.18;;;;;;;;;;4959265;28;20043;-73
2021/09/01 08:18:43;;;;;;;9.80;5.25;;;;;;;;;;4969663;28;21178;-71
2021/09/01 08:21:09;;;;;;;8.98;5.25;;;;;;;;;;4973623;28;20039;-74
2021/09/01 08:23:35;;;;;;;7.85;5.40;;;;;;;;;;4973733;28;20075;-74
2021/09/01 08:26:01;;;;;;;9.40;4.90;;;;;;;;;;4972867;28;20486;-70
2021/09/01 08:28:27;;;;;;;7.53;5.20;;;;;;;;;;4968383;28;20050;-72
2021/09/01 08:30:53;;;;;;;8.68;4.90;;;;;;;;;;4973744;28;20501;-74
2021/09/01 08:33:19;;;;;;;7.90;5.00;;;;;;;;;;4970653;28;20417;-74
2021/09/01 08:35:45;;;;;;;9.38;4.85;;;;;;;;;;4974012;28;20094;-74
2021/09/01 08:38:12;;;;;;;14.25;5.07;;;;;;;;;;4972173;28;20030;-74
2021/09/01 08:40:38;;;;;;;8.77;4.72;;;;;;;;;;4972282;28;20039;-73
2021/09/01 08:43:04;;;;;;;7.97;4.50;;;;;;;;;;4972001;28;20031;-71
2021/09/01 08:45:30;;;;;;;7.70;4.78;;;;;;;;;;4972063;28;20058;-74
2021/09/01 08:47:57;;;;;;;8.80;5.25;;;;;;;;;;4973451;28;20113;-74
2021/09/01 08:50:26;;;;;;;7.43;4.80;;;;;;;;;;4962867;28;20034;-74
2021/09/01 08:52:52;;;;;;;28.50;5.38;;;;;;;;;;4973189;28;20286;-74
2021/09/01 08:55:19;;;;;;;14.73;4.95;;;;;;;;;;4972421;28;20035;-67
2021/09/01 08:57:45;;;;;;;8.40;4.97;;;;;;;;;;4970346;28;20110;-69
2021/09/01 09:00:12;;;;;;;9.68;4.97;;;;;;;;;;4972852;28;20499;-74
2021/09/01 09:02:38;;;;;;;10.82;5.40;;;;;;;;;;4969796;28;20035;-71
2021/09/01 09:05:06;;;;;;;9.38;4.78;;;;;;;;;;4972998;28;20480;-65
2021/09/01 09:07:42;;;;;;;7.22;5.00;;;;;;;;;;4972345;28;20075;-76
2021/09/01 09:10:24;;;;;;;7.40;4.63;;;;;;;;;;4958558;28;20105;-73
2021/09/01 09:12:55;;;;;;;8.93;4.70;;;;;;;;;;4973119;28;20102;-74
2021/09/01 09:15:21;;;;;;;10.88;4.95;;;;;;;;;;4972103;28;20023;-73
2021/09/01 09:17:48;;;;;;;8.27;4.78;;;;;;;;;;4973469;28;20035;-73
2021/09/01 09:20:14;;;;;;;8.65;4.80;;;;;;;;;;4976701;28;20117;-68
2021/09/01 09:22:41;;;;;;;7.05;4.82;;;;;;;;;;4977466;28;20027;-64
2021/09/01 09:25:24;;;;;;;5.50;4.68;;;;;;;;;;4984688;28;20031;-69
2021/09/01 09:27:57;;;;;;;6.78;4.55;;;;;;;;;;4968226;28;20412;-63
2021/09/01 09:30:24;;;;;;;8.20;4.72;;;;;;;;;;4976463;28;20085;-70
2021/09/01 09:32:58;;;;;;;8.07;5.13;;;;;;;;;;4977336;28;20027;-69
2021/09/01 09:35:26;;;;;;;7.25;4.80;;;;;;;;;;4981729;28;20038;-69
2021/09/01 09:38:04;;;;;;;8.65;4.78;;;;;;;;;;4976527;28;20481;-72
2021/09/01 09:40:31;;;;;;;8.15;4.90;;;;;;;;;;4975885;28;20065;-65
2021/09/01 09:43:12;;;;;;;8.15;5.40;;;;;;;;;;4973961;28;20079;-67
2021/09/01 09:45:38;;;;;;;12.50;5.03;;;;;;;;;;4975503;28;20074;-72
2021/09/01 09:48:07;;;;;;;11.05;5.00;;;;;;;;;;4974684;28;20041;-82
2021/09/01 09:50:33;;;;;;;9.07;5.10;;;;;;;;;;4960123;28;20110;-76
2021/09/01 09:52:59;;;;;;;11.57;5.10;;;;;;;;;;4975571;28;20030;-68
2021/09/01 09:55:25;;;;;;;7.55;4.72;;;;;;;;;;4976080;28;20034;-72
2021/09/01 09:57:53;;;;;;;11.73;5.03;;;;;;;;;;4975720;28;20033;-72
2021/09/01 10:00:19;;;;;;;9.05;4.97;;;;;;;;;;4975396;28;20381;-80
2021/09/01 10:02:46;;;;;;;12.60;4.78;;;;;;;;;;4975000;28;20027;-75
2021/09/01 10:05:12;;;;;;;10.52;4.93;;;;;;;;;;4972614;28;20031;-73
2021/09/01 10:07:39;;;;;;;7.40;4.80;;;;;;;;;;4973369;28;20023;-76
2021/09/01 10:10:05;;;;;;;8.50;5.00;;;;;;;;;;4974563;28;20039;-84
2021/09/01 10:12:31;;;;;;;7.32;4.70;;;;;;;;;;4969909;28;20029;-80
2021/09/01 10:14:59;;;;;;;10.02;4.63;;;;;;;;;;4981558;28;20373;-76
2021/09/01 10:17:26;;;;;;;12.52;5.00;;;;;;;;;;4963206;28;20030;-82
2021/09/01 10:19:53;;;;;;;9.18;4.63;;;;;;;;;;4968604;28;20038;-74
2021/09/01 10:22:20;;;;;;;6.35;4.78;;;;;;;;;;4964142;28;20499;-72
2021/09/01 10:24:48;;;;;;;7.35;5.25;;;;;;;;;;4956006;28;20062;-72
2021/09/01 10:27:25;;;;;;;7.70;4.50;;;;;;;;;;4962792;28;20469;-73
2021/09/01 10:29:53;;;;;;;8.60;5.05;;;;;;;;;;4961026;28;20517;-75
2021/09/01 10:32:22;;;;;;;8.75;5.03;;;;;;;;;;4961251;28;20020;-72
2021/09/01 10:34:49;;;;;;;14.25;5.05;;;;;;;;;;4961355;28;20019;-74
2021/09/01 10:37:36;;;;;;;7.88;4.93;;;;;;;;;;4963403;28;20567;-73
2021/09/01 10:40:02;;;;;;;7.43;4.60;;;;;;;;;;4960775;28;20057;-73
2021/09/01 10:42:42;;;;;;;6.95;4.88;;;;;;;;;;4960729;28;20023;-75
2021/09/01 10:45:13;;;;;;;7.05;4.75;;;;;;;;;;4959935;28;20034;-67
2021/09/01 10:47:54;;;;;;;10.93;5.25;;;;;;;;;;4962678;28;20031;-71
2021/09/01 10:50:26;;;;;;;8.20;4.78;;;;;;;;;;4967048;28;20038;-76
2021/09/01 10:53:07;;;;;;;5.30;4.40;;;;;;;;;;4973310;28;20031;-74
2021/09/01 10:55:45;;;;;;;10.68;5.63;;;;;;;;;;4974240;28;20027;-75
2021/09/01 10:58:21;;;;;;;9.68;5.00;;;;;;;;;;4974071;28;20019;-73
2021/09/01 11:00:58;;;;;;;6.10;4.70;;;;;;;;;;4973560;28;20121;-75
2021/09/01 11:03:27;;;;;;;6.40;4.70;;;;;;;;;;4970737;28;20046;-75
2021/09/01 11:05:55;;;;;;;7.68;5.03;;;;;;;;;;4969600;28;20102;-73
2021/09/01 11:08:21;;;;;;;8.55;5.03;;;;;;;;;;4969304;28;20023;-74
2021/09/01 11:10:57;;;;;;;8.55;4.93;;;;;;;;;;4969882;28;20110;-74
2021/09/01 11:13:38;;;;;;;8.32;5.40;;;;;;;;;;4968488;28;20026;-73
2021/09/01 11:16:04;;;;;;;7.95;5.22;;;;;;;;;;4963262;28;20608;-69
2021/09/01 11:18:30;;;;;;;8.23;5.15;;;;;;;;;;4969161;28;20050;-69
2021/09/01 11:20:57;;;;;;;7.90;5.07;;;;;;;;;;4972983;28;20031;-73
2021/09/01 11:23:28;;;;;;;10.15;5.18;;;;;;;;;;4966550;28;20074;-71
2021/09/01 11:25:55;;;;;;;9.60;5.18;;;;;;;;;;4973393;28;20034;-73
2021/09/01 11:28:22;;;;;;;7.63;5.47;;;;;;;;;;4974904;28;20018;-71
2021/09/01 11:30:48;;;;;;;12.45;5.88;;;;;;;;;;4972641;28;20106;-76
2021/09/01 11:33:16;;;;;;;10.60;5.53;;;;;;;;;;4972745;28;20074;-73
2021/09/01 11:35:45;;;;;;;9.07;5.55;;;;;;;;;;4956580;28;20038;-75
2021/09/01 11:38:11;;;;;;;7.45;5.15;;;;;;;;;;4982700;28;20030;-89
2021/09/01 11:40:43;;;;;;;8.07;5.35;;;;;;;;;;4975189;28;20039;-73
2021/09/01 11:43:20;;;;;;;11.32;5.07;;;;;;;;;;4974010;28;20038;-79
2021/09/01 11:45:51;;;;;;;11.80;5.28;;;;;;;;;;4967247;28;20033;-78
2021/09/01 11:48:18;;;;;;;15.43;5.40;;;;;;;;;;4969633;28;20027;-69
2021/09/01 11:50:48;;;;;;;12.45;5.65;;;;;;;;;;4974399;28;20031;-75
2021/09/01 11:53:14;;;;;;;10.32;5.20;;;;;;;;;;4969634;28;20023;-74
2021/09/01 11:55:41;;;;;;;9.30;5.40;;;;;;;;;;4974380;28;20030;-73
2021/09/01 11:58:33;;;;;;;11.65;5.53;;;;;;;;;;4973124;28;20031;-75
2021/09/01 12:01:00;;;;;;;8.13;5.80;;;;;;;;;;4971585;28;20051;-73
2021/09/01 12:03:30;;;;;;;8.82;5.40;;;;;;;;;;4978496;28;20019;-75
2021/09/01 12:06:09;;;;;;;9.85;5.78;;;;;;;;;;4982062;28;20026;-75
2021/09/01 12:08:49;;;;;;;9.45;5.80;;;;;;;;;;4977033;28;20069;-78
2021/09/01 12:11:19;;;;;;;8.65;5.30;;;;;;;;;;4977761;28;20027;-71
2021/09/01 12:13:46;;;;;;;15.20;5.60;;;;;;;;;;4985667;28;20088;-74
2021/09/01 12:16:13;;;;;;;10.50;5.25;;;;;;;;;;4965941;28;20481;-71
2021/09/01 12:18:56;;;;;;;10.18;5.47;;;;;;;;;;4970821;28;20031;-69
2021/09/01 12:21:23;;;;;;;7.53;5.50;;;;;;;;;;4972547;28;20034;-74
2021/09/01 12:24:08;;;;;;;7.85;5.00;;;;;;;;;;4974103;28;20043;-74
2021/09/01 12:26:44;;;;;;;10.60;5.60;;;;;;;;;;4975067;28;20034;-70
2021/09/01 12:29:22;;;;;;;8.48;5.65;;;;;;;;;;4973393;28;20034;-71
2021/09/01 12:31:51;;;;;;;8.70;5.38;;;;;;;;;;4974223;28;20109;-74
2021/09/01 12:34:28;;;;;;;9.20;5.45;;;;;;;;;;4973716;28;20031;-74
2021/09/01 12:37:08;;;;;;;12.15;5.63;;;;;;;;;;4956844;28;20015;-74
2021/09/01 12:39:43;;;;;;;11.13;5.75;;;;;;;;;;4966149;28;20038;-73
2021/09/01 12:42:22;;;;;;;8.95;6.55;;;;;;;;;;4980085;28;20035;-75
2021/09/01 12:44:52;;;;;;;9.20;5.90;;;;;;;;;;4973724;28;20058;-74
2021/09/01 12:47:19;;;;;;;9.55;5.70;;;;;;;;;;4973490;28;20027;-73
2021/09/01 12:49:47;;;;;;;10.85;7.03;;;;;;;;;;4977033;28;20436;-74
2021/09/01 12:52:13;;;;;;;11.10;6.60;;;;;;;;;;4979277;28;20046;-74
2021/09/01 12:54:40;;;;;;;9.30;5.45;;;;;;;;;;4973271;28;20477;-74
2021/09/01 12:57:06;;;;;;;10.02;5.78;;;;;;;;;;4973472;28;20503;-71
2021/09/01 12:59:35;;;;;;;8.25;5.25;;;;;;;;;;4971790;28;20031;-74
2021/09/01 13:02:02;;;;;;;8.43;5.68;;;;;;;;;;4973545;28;20050;-73
2021/09/01 13:04:28;;;;;;;7.90;5.82;;;;;;;;;;4973544;28;20061;-73
2021/09/01 13:06:57;;;;;;;8.88;5.35;;;;;;;;;;4971737;28;20033;-72
2021/09/01 13:09:26;;;;;;;11.55;5.30;;;;;;;;;;4973622;28;20499;-74
2021/09/01 13:11:52;;;;;;;8.50;5.55;;;;;;;;;;4973115;28;20465;-75
2021/09/01 13:14:19;;;;;;;7.05;5.03;;;;;;;;;;4979306;28;20019;-66
2021/09/01 13:16:45;;;;;;;8.30;5.80;;;;;;;;;;4959937;28;20473;-74
2021/09/01 13:19:11;;;;;;;8.40;5.65;;;;;;;;;;4972909;28;20027;-76
2021/09/01 13:21:37;;;;;;;12.23;5.43;;;;;;;;;;4973097;28;20043;-70
2021/09/01 13:24:04;;;;;;;7.60;5.22;;;;;;;;;;4972913;28;20463;-67
2021/09/01 13:26:39;;;;;;;15.15;5.50;;;;;;;;;;4965455;28;20019;-75
2021/09/01 13:29:12;;;;;;;8.05;4.97;;;;;;;;;;4970346;28;20035;-74
2021/09/01 13:31:38;;;;;;;9.20;5.68;;;;;;;;;;4973628;28;20023;-74
2021/09/01 13:34:06;;;;;;;11.20;5.20;;;;;;;;;;4973110;28;20086;-73
2021/09/01 13:36:32;;;;;;;7.88;5.70;;;;;;;;;;4971525;28;20516;-75
2021/09/01 13:38:58;;;;;;;8.38;5.20;;;;;;;;;;4973044;28;20030;-75
2021/09/01 13:41:25;;;;;;;10.02;5.00;;;;;;;;;;4972875;28;20070;-74
2021/09/01 13:43:51;;;;;;;12.57;5.15;;;;;;;;;;4973604;28;20552;-69
2021/09/01 13:46:17;;;;;;;9.70;4.68;;;;;;;;;;4972751;28;20019;-73
2021/09/01 13:48:43;;;;;;;7.28;4.63;;;;;;;;;;4968689;28;20027;-74
2021/09/01 13:51:09;;;;;;;9.95;5.43;;;;;;;;;;4972397;28;20023;-73
2021/09/01 13:53:36;;;;;;;10.07;5.40;;;;;;;;;;4973606;28;20027;-74
2021/09/01 13:56:05;;;;;;;8.65;5.13;;;;;;;;;;4973206;28;20034;-73
2021/09/01 13:58:31;;;;;;;7.75;5.18;;;;;;;;;;4971984;28;20392;-72
2021/09/01 14:00:58;;;;;;;10.52;5.28;;;;;;;;;;4973153;28;20078;-73
2021/09/01 14:03:29;;;;;;;13.05;5.28;;;;;;;;;;4986893;28;20023;-73
2021/09/01 14:05:55;;;;;;;9.52;5.70;;;;;;;;;;4966886;28;20097;-73
2021/09/01 14:08:21;;;;;;;9.35;5.38;;;;;;;;;;4974705;28;20362;-72
2021/09/01 14:10:47;;;;;;;8.63;5.03;;;;;;;;;;4972124;28;20041;-73
2021/09/01 14:13:13;;;;;;;6.78;5.10;;;;;;;;;;4976386;28;20079;-69
2021/09/01 14:15:39;;;;;;;7.80;5.00;;;;;;;;;;4972092;28;20027;-73
2021/09/01 14:18:05;;;;;;;8.35;5.28;;;;;;;;;;4968013;28;20492;-73
2021/09/01 14:20:31;;;;;;;13.45;6.05;;;;;;;;;;4976195;28;20030;-73
2021/09/01 14:22:58;;;;;;;9.90;5.60;;;;;;;;;;4974238;28;20046;-70
2021/09/01 14:25:24;;;;;;;10.68;5.38;;;;;;;;;;4973545;28;20027;-71
2021/09/01 14:27:50;;;;;;;5.95;5.00;;;;;;;;;;4979135;28;20514;-73
2021/09/01 14:30:16;;;;;;;11.93;5.47;;;;;;;;;;4975787;28;20038;-66
2021/09/01 14:32:43;;;;;;;8.43;5.25;;;;;;;;;;4975990;28;20015;-66
2021/09/01 14:35:10;;;;;;;10.68;4.97;;;;;;;;;;4975906;28;20023;-72
2021/09/01 14:37:36;;;;;;;10.18;5.30;;;;;;;;;;4975922;28;20015;-72
2021/09/01 14:40:04;;;;;;;11.15;4.93;;;;;;;;;;4975918;28;20058;-71
2021/09/01 14:42:30;;;;;;;11.48;5.53;;;;;;;;;;4976459;28;20448;-71
2021/09/01 14:44:56;;;;;;;7.32;5.10;;;;;;;;;;4977577;28;20023;-72